createdAt,value
2018-05-10T00:01:02.629Z,38.27
2018-05-10T00:03:30.100Z,51.93
2018-05-10T00:05:57.582Z,39.27
2018-05-10T00:08:25.056Z,47.43
2018-05-10T00:10:52.554Z,39.90
2018-05-10T00:13:20.030Z,106.20
2018-05-10T00:15:47.492Z,67.33
2018-05-10T00:18:14.973Z,53.07
2018-05-10T00:20:42.448Z,54.20
2018-05-10T00:23:09.936Z,40.28
2018-05-10T00:25:37.419Z,40.87
2018-05-10T00:28:04.911Z,43.33
2018-05-10T00:30:32.379Z,54.77
2018-05-10T00:32:59.852Z,38.70
2018-05-10T00:35:27.343Z,47.80
2018-05-10T00:37:54.821Z,41.73
2018-05-10T00:40:22.304Z,39.03
2018-05-10T00:42:49.773Z,55.83
2018-05-10T00:45:17.242Z,43.87
2018-05-10T00:47:44.720Z,60.17
2018-05-10T00:50:12.189Z,43.78
2018-05-10T00:52:39.667Z,45.83
2018-05-10T00:55:07.141Z,47.27
2018-05-10T00:57:34.609Z,49.03
2018-05-10T01:00:02.089Z,45.37
2018-05-10T01:02:29.564Z,38.47
2018-05-10T01:04:57.156Z,43.10
2018-05-10T01:07:24.537Z,59.90
2018-05-10T01:09:52.008Z,46.67
2018-05-10T01:12:19.491Z,54.03
2018-05-10T01:14:46.976Z,57.90
2018-05-10T01:17:14.478Z,58.78
2018-05-10T01:19:41.952Z,61.33
2018-05-10T01:22:09.933Z,52.10
2018-05-10T01:24:37.428Z,50.90
2018-05-10T01:27:04.905Z,49.03
2018-05-10T01:29:32.404Z,49.80
2018-05-10T01:31:59.879Z,56.33
2018-05-10T01:34:27.343Z,56.60
2018-05-10T01:36:54.835Z,64.90
2018-05-10T01:39:22.307Z,56.80
2018-05-10T01:41:49.788Z,54.38
2018-05-10T01:44:17.255Z,64.53
2018-05-10T01:46:44.721Z,63.30
2018-05-10T01:49:12.201Z,57.97
2018-05-10T01:51:39.671Z,57.13
2018-05-10T01:54:07.163Z,58.10
2018-05-10T01:56:34.633Z,72.37
2018-05-10T01:59:02.127Z,64.70
2018-05-10T02:01:29.604Z,94.70
2018-05-10T02:03:57.070Z,59.63
2018-05-10T02:06:24.549Z,67.20
2018-05-10T02:08:52.011Z,57.10
2018-05-10T02:11:19.500Z,56.17
2018-05-10T02:13:47.049Z,79.28
2018-05-10T02:16:14.501Z,65.87
2018-05-10T02:18:41.973Z,54.13
2018-05-10T02:21:09.440Z,60.67
2018-05-10T02:23:36.928Z,70.63
2018-05-10T02:26:04.395Z,82.10
2018-05-10T02:28:31.892Z,60.00
2018-05-10T02:30:59.356Z,54.83
2018-05-10T02:33:26.831Z,52.67
2018-05-10T02:35:54.323Z,61.43
2018-05-10T02:38:21.796Z,72.00
2018-05-10T02:40:49.288Z,77.47
2018-05-10T02:43:16.762Z,51.93
2018-05-10T02:45:44.252Z,53.13
2018-05-10T02:48:11.723Z,61.80
2018-05-10T02:50:39.187Z,62.70
2018-05-10T02:53:06.684Z,63.97
2018-05-10T02:55:34.159Z,55.30
2018-05-10T02:58:01.648Z,51.27
2018-05-10T03:00:29.112Z,52.10
2018-05-10T03:02:56.585Z,54.67
2018-05-10T03:05:24.076Z,43.33
2018-05-10T03:07:51.540Z,51.93
2018-05-10T03:10:19.029Z,65.63
2018-05-10T03:12:46.513Z,51.83
2018-05-10T03:15:13.983Z,55.93
2018-05-10T03:17:41.468Z,61.10
2018-05-10T03:20:08.951Z,61.50
2018-05-10T03:22:36.455Z,60.00
2018-05-10T03:25:03.924Z,55.77
2018-05-10T03:27:31.392Z,51.15
2018-05-10T03:29:58.876Z,76.97
2018-05-10T03:32:26.424Z,58.10
2018-05-10T03:34:54.353Z,52.33
2018-05-10T03:37:21.825Z,53.93
2018-05-10T03:39:49.302Z,55.28
2018-05-10T03:42:16.784Z,66.83
2018-05-10T03:44:44.252Z,54.60
2018-05-10T03:47:11.736Z,59.40
2018-05-10T03:49:39.200Z,76.60
2018-05-10T03:52:06.669Z,48.50
2018-05-10T03:54:34.164Z,63.13
2018-05-10T03:57:01.643Z,60.50
2018-05-10T03:59:29.123Z,64.20
2018-05-10T04:01:56.587Z,49.60
2018-05-10T04:04:35.712Z,59.73
2018-05-10T04:07:14.951Z,60.27
2018-05-10T04:09:54.024Z,48.60
2018-05-10T04:12:21.493Z,50.25
2018-05-10T04:14:48.962Z,43.87
2018-05-10T04:17:16.449Z,57.10
2018-05-10T04:19:43.923Z,47.78
2018-05-10T04:22:11.413Z,61.13
2018-05-10T04:24:38.880Z,47.97
2018-05-10T04:27:06.367Z,47.50
2018-05-10T04:29:34.881Z,37.20
2018-05-10T04:32:02.350Z,46.90
2018-05-10T04:34:29.842Z,41.27
2018-05-10T04:36:57.312Z,52.00
2018-05-10T04:39:24.796Z,49.10
2018-05-10T04:41:52.278Z,38.53
2018-05-10T04:44:19.765Z,38.47
2018-05-10T04:46:47.240Z,35.37
2018-05-10T04:49:14.709Z,34.03
2018-05-10T04:51:42.193Z,36.43
2018-05-10T04:54:09.666Z,30.93
2018-05-10T04:56:37.154Z,29.92
2018-05-10T04:59:04.615Z,34.30
2018-05-10T05:01:32.096Z,30.03
2018-05-10T05:03:59.572Z,25.90
2018-05-10T05:06:27.071Z,26.37
2018-05-10T05:08:54.581Z,24.98
2018-05-10T05:11:22.037Z,29.37
2018-05-10T05:13:49.525Z,29.20
2018-05-10T05:16:16.989Z,26.23
2018-05-10T05:18:44.480Z,29.63
2018-05-10T05:21:11.956Z,36.90
2018-05-10T05:23:39.444Z,29.00
2018-05-10T05:26:06.917Z,29.83
2018-05-10T05:28:34.384Z,36.63
2018-05-10T05:31:01.869Z,28.70
2018-05-10T05:33:29.348Z,30.90
2018-05-10T05:35:56.838Z,31.55
2018-05-10T05:38:24.307Z,34.60
2018-05-10T05:40:51.802Z,26.80
2018-05-10T05:43:19.318Z,35.30
2018-05-10T05:45:46.764Z,33.27
2018-05-10T05:48:14.244Z,28.52
2018-05-10T05:50:41.736Z,31.87
2018-05-10T05:53:09.231Z,29.80
2018-05-10T05:55:36.701Z,35.07
2018-05-10T05:58:04.169Z,32.07
2018-05-10T06:00:31.659Z,38.95
2018-05-10T06:02:59.133Z,29.07
2018-05-10T06:05:26.634Z,29.50
2018-05-10T06:07:54.102Z,30.77
2018-05-10T06:10:21.577Z,34.53
2018-05-10T06:12:49.076Z,34.30
2018-05-10T06:15:16.551Z,36.58
2018-05-10T06:17:44.048Z,31.97
2018-05-10T06:20:11.522Z,39.30
2018-05-10T06:22:39.007Z,35.40
2018-05-10T06:25:06.584Z,33.80
2018-05-10T06:27:33.996Z,38.30
2018-05-10T06:30:01.492Z,30.67
2018-05-10T06:32:28.964Z,34.70
2018-05-10T06:34:56.436Z,38.20
2018-05-10T06:37:24.162Z,32.80
2018-05-10T06:39:51.997Z,35.50
2018-05-10T06:42:19.476Z,43.57
2018-05-10T06:44:46.953Z,40.63
2018-05-10T06:47:14.417Z,42.20
2018-05-10T06:49:41.892Z,34.93
2018-05-10T06:52:09.364Z,37.57
2018-05-10T06:54:36.855Z,42.17
2018-05-10T06:57:04.335Z,33.80
2018-05-10T06:59:32.012Z,34.60
2018-05-10T07:01:59.531Z,42.20
2018-05-10T07:04:27.027Z,40.67
2018-05-10T07:06:55.349Z,41.20
2018-05-10T07:09:22.841Z,38.30
2018-05-10T07:11:50.325Z,47.07
2018-05-10T07:14:17.785Z,36.67
2018-05-10T07:16:45.256Z,40.77
2018-05-10T07:19:12.747Z,38.25
2018-05-10T07:21:40.228Z,35.50
2018-05-10T07:24:07.732Z,32.60
2018-05-10T07:26:35.203Z,31.77
2018-05-10T07:29:02.694Z,33.17
2018-05-10T07:31:30.173Z,32.90
2018-05-10T07:33:58.669Z,32.17
2018-05-10T07:36:26.637Z,46.33
2018-05-10T07:38:54.112Z,35.60
2018-05-10T07:41:21.584Z,37.30
2018-05-10T07:43:49.088Z,40.23
2018-05-10T07:46:16.565Z,32.60
2018-05-10T07:48:44.063Z,31.70
2018-05-10T07:51:11.532Z,29.73
2018-05-10T07:53:38.996Z,35.87
2018-05-10T07:56:06.472Z,32.40
2018-05-10T07:58:33.959Z,33.77
2018-05-10T08:01:01.986Z,29.60
2018-05-10T08:03:29.450Z,35.07
2018-05-10T08:05:56.908Z,46.43
2018-05-10T08:08:24.392Z,39.17
2018-05-10T08:10:51.853Z,37.27
2018-05-10T08:13:19.340Z,40.60
2018-05-10T08:15:46.832Z,35.93
2018-05-10T08:18:14.299Z,35.10
2018-05-10T08:20:41.785Z,35.38
2018-05-10T08:23:09.253Z,37.53
2018-05-10T08:25:36.748Z,39.33
2018-05-10T08:28:04.219Z,38.20
2018-05-10T08:30:31.693Z,35.87
2018-05-10T08:32:59.175Z,32.40
2018-05-10T08:35:26.648Z,40.80
2018-05-10T08:37:54.144Z,44.13
2018-05-10T08:40:21.616Z,44.50
2018-05-10T08:42:49.084Z,33.70
2018-05-10T08:45:16.571Z,40.00
2018-05-10T08:47:44.034Z,30.07
2018-05-10T08:50:11.526Z,55.67
2018-05-10T08:52:39.006Z,38.13
2018-05-10T08:55:07.184Z,38.63
2018-05-10T08:57:34.660Z,46.73
2018-05-10T09:00:02.150Z,32.13
2018-05-10T09:02:29.628Z,41.17
2018-05-10T09:04:57.111Z,41.03
2018-05-10T09:07:24.665Z,36.23
2018-05-10T09:09:52.078Z,31.13
2018-05-10T09:12:19.576Z,51.83
2018-05-10T09:14:47.064Z,39.30
2018-05-10T09:17:14.539Z,29.43
2018-05-10T09:19:42.046Z,26.37
2018-05-10T09:22:09.508Z,29.10
2018-05-10T09:24:36.982Z,26.40
2018-05-10T09:27:04.553Z,42.87
2018-05-10T09:29:32.029Z,22.83
2018-05-10T09:31:59.520Z,25.17
2018-05-10T09:34:26.992Z,25.03
2018-05-10T09:36:54.476Z,22.23
2018-05-10T09:39:21.942Z,22.20
2018-05-10T09:41:49.414Z,28.23
2018-05-10T09:44:16.891Z,22.00
2018-05-10T09:46:44.360Z,27.80
2018-05-10T09:49:11.834Z,22.40
2018-05-10T09:51:39.298Z,25.50
2018-05-10T09:54:06.783Z,27.48
2018-05-10T09:56:34.252Z,23.52
2018-05-10T09:59:01.723Z,33.33
2018-05-10T10:01:29.207Z,30.00
2018-05-10T10:03:56.680Z,30.53
2018-05-10T10:06:24.158Z,41.23
2018-05-10T10:08:51.656Z,29.20
2018-05-10T10:11:19.139Z,30.20
2018-05-10T10:13:46.632Z,36.37
2018-05-10T10:16:14.117Z,47.43
2018-05-10T10:18:41.596Z,30.10
2018-05-10T10:21:09.061Z,29.00
2018-05-10T10:23:36.655Z,39.10
2018-05-10T10:26:04.128Z,34.55
2018-05-10T10:28:31.589Z,29.27
2018-05-10T10:30:59.301Z,30.80
2018-05-10T10:33:26.764Z,21.07
2018-05-10T10:35:54.248Z,20.33
2018-05-10T10:38:22.677Z,17.40
2018-05-10T10:40:50.182Z,32.93
2018-05-10T10:43:17.667Z,30.17
2018-05-10T10:45:45.142Z,25.40
2018-05-10T10:48:12.629Z,14.67
2018-05-10T10:50:40.095Z,15.55
2018-05-10T10:53:07.556Z,24.63
2018-05-10T10:55:35.045Z,17.08
2018-05-10T10:58:02.515Z,17.37
2018-05-10T11:00:30.752Z,18.75
2018-05-10T11:02:58.249Z,18.63
2018-05-10T11:05:25.899Z,12.32
2018-05-10T11:07:53.368Z,7.00
2018-05-10T11:10:20.828Z,6.87
2018-05-10T11:12:48.400Z,8.20
2018-05-10T11:15:15.867Z,22.30
2018-05-10T11:17:43.360Z,7.33
2018-05-10T11:20:10.837Z,17.70
2018-05-10T11:22:38.480Z,5.95
2018-05-10T11:25:05.918Z,6.57
2018-05-10T11:27:33.389Z,6.30
2018-05-10T11:30:00.865Z,9.53
2018-05-10T11:32:28.327Z,5.93
2018-05-10T11:34:55.789Z,5.33
2018-05-10T11:37:23.357Z,13.03
2018-05-10T11:39:50.830Z,5.57
2018-05-10T11:42:18.329Z,7.40
2018-05-10T11:44:45.781Z,6.25
2018-05-10T11:47:13.256Z,3.90
2018-05-10T11:49:40.772Z,3.90
2018-05-10T11:52:08.278Z,2.80
2018-05-10T11:54:35.993Z,3.70
2018-05-10T11:57:03.560Z,6.40
2018-05-10T11:59:31.047Z,3.77
2018-05-10T12:01:58.499Z,6.93
2018-05-10T12:04:26.072Z,5.03
2018-05-10T12:06:53.571Z,12.90
2018-05-10T12:09:21.169Z,3.23
2018-05-10T12:11:48.719Z,4.00
2018-05-10T12:14:16.254Z,5.90
2018-05-10T12:16:43.721Z,3.27
2018-05-10T12:19:11.299Z,3.90
2018-05-10T12:21:38.714Z,6.37
2018-05-10T12:24:06.320Z,3.87
2018-05-10T12:26:34.046Z,3.00
2018-05-10T12:29:01.773Z,5.13
2018-05-10T12:31:29.756Z,9.60
2018-05-10T12:33:57.869Z,3.90
2018-05-10T12:36:25.431Z,2.67
2018-05-10T12:38:52.906Z,4.10
2018-05-10T12:41:20.380Z,3.97
2018-05-10T12:43:48.769Z,3.85
2018-05-10T12:46:16.551Z,3.33
2018-05-10T12:48:44.248Z,3.90
2018-05-10T12:51:11.748Z,5.87
2018-05-10T12:53:39.456Z,3.80
2018-05-10T12:56:06.983Z,3.50
2018-05-10T12:58:34.482Z,3.77
2018-05-10T13:01:01.963Z,4.70
2018-05-10T13:03:29.432Z,3.53
2018-05-10T13:05:56.911Z,3.47
2018-05-10T13:08:24.416Z,3.00
2018-05-10T13:10:51.933Z,3.30
2018-05-10T13:13:20.037Z,3.73
2018-05-10T13:15:47.504Z,3.47
2018-05-10T13:18:15.064Z,13.00
2018-05-10T13:20:42.607Z,3.60
2018-05-10T13:23:10.075Z,6.00
2018-05-10T13:25:37.571Z,2.60
2018-05-10T13:28:05.076Z,3.03
2018-05-10T13:30:32.591Z,10.30
2018-05-10T13:33:00.091Z,7.60
2018-05-10T13:35:27.608Z,7.50
2018-05-10T13:37:55.155Z,4.20
2018-05-10T13:40:22.642Z,2.40
2018-05-10T13:42:50.495Z,4.00
2018-05-10T13:45:17.976Z,2.03
2018-05-10T13:47:45.446Z,2.40
2018-05-10T13:50:12.921Z,2.40
2018-05-10T13:52:40.375Z,2.10
2018-05-10T13:55:07.916Z,2.30
2018-05-10T13:57:35.447Z,5.20
2018-05-10T14:00:02.979Z,3.60
2018-05-10T14:02:30.540Z,4.60
2018-05-10T14:04:57.998Z,2.47
2018-05-10T14:07:25.472Z,2.50
2018-05-10T14:09:53.135Z,6.37
2018-05-10T14:12:20.603Z,2.73
2018-05-10T14:14:48.128Z,3.20
2018-05-10T14:17:15.810Z,2.60
2018-05-10T14:19:43.451Z,4.43
2018-05-10T14:22:11.127Z,3.50
2018-05-10T14:24:38.574Z,5.43
2018-05-10T14:27:06.046Z,4.45
2018-05-10T14:29:33.496Z,3.07
2018-05-10T14:32:01.441Z,3.33
2018-05-10T14:34:28.897Z,4.67
2018-05-10T14:36:56.394Z,3.55
2018-05-10T14:39:23.878Z,2.93
2018-05-10T14:41:51.706Z,3.60
2018-05-10T14:44:19.242Z,7.33
2018-05-10T14:46:46.773Z,4.43
2018-05-10T14:49:14.281Z,2.53
2018-05-10T14:51:41.752Z,3.27
2018-05-10T14:54:09.285Z,2.97
2018-05-10T14:56:36.744Z,3.10
2018-05-10T14:59:05.080Z,5.30
2018-05-10T15:01:33.457Z,3.27
2018-05-10T15:04:01.009Z,8.40
2018-05-10T15:06:28.465Z,6.30
2018-05-10T15:08:56.004Z,5.00
2018-05-10T15:11:23.492Z,7.80
2018-05-10T15:13:50.977Z,11.53
2018-05-10T15:16:18.440Z,7.07
2018-05-10T15:18:46.958Z,9.27
2018-05-10T15:21:14.709Z,7.50
2018-05-10T15:23:42.243Z,7.03
2018-05-10T15:26:10.299Z,7.03
2018-05-10T15:28:37.973Z,7.00
2018-05-10T15:31:05.918Z,7.50
2018-05-10T15:33:34.134Z,11.03
2018-05-10T15:36:01.600Z,13.77
2018-05-10T15:38:29.560Z,9.60
2018-05-10T15:40:57.035Z,6.90
2018-05-10T15:43:24.888Z,5.50
2018-05-10T15:45:52.355Z,5.77
2018-05-10T15:48:19.813Z,6.45
2018-05-10T15:50:47.294Z,7.20
2018-05-10T15:53:14.752Z,6.40
2018-05-10T15:55:42.246Z,5.67
2018-05-10T15:58:09.710Z,6.30
2018-05-10T16:00:37.185Z,4.50
2018-05-10T16:03:04.808Z,5.10
2018-05-10T16:05:32.385Z,5.83
2018-05-10T16:08:00.134Z,5.27
2018-05-10T16:10:27.592Z,6.60
2018-05-10T16:12:55.117Z,4.47
2018-05-10T16:15:22.573Z,5.55
2018-05-10T16:17:50.486Z,6.93
2018-05-10T16:20:17.971Z,5.10
2018-05-10T16:22:45.441Z,4.20
2018-05-10T16:25:12.917Z,5.87
2018-05-10T16:27:40.373Z,7.53
2018-05-10T16:30:08.536Z,4.80
2018-05-10T16:32:36.040Z,5.73
2018-05-10T16:35:04.412Z,9.23
2018-05-10T16:37:32.287Z,4.83
2018-05-10T16:39:59.757Z,5.83
2018-05-10T16:42:27.801Z,5.53
2018-05-10T16:44:55.445Z,8.30
2018-05-10T16:47:23.695Z,5.10
2018-05-10T16:49:51.184Z,5.37
2018-05-10T16:52:19.024Z,5.67
2018-05-10T16:54:47.451Z,4.32
2018-05-10T16:57:15.409Z,5.63
2018-05-10T16:59:42.887Z,3.50
2018-05-10T17:02:10.454Z,4.30
2018-05-10T17:04:38.149Z,4.20
2018-05-10T17:07:05.615Z,3.67
2018-05-10T17:09:33.132Z,11.87
2018-05-10T17:12:00.619Z,13.57
2018-05-10T17:14:28.104Z,6.00
2018-05-10T17:16:55.617Z,5.03
2018-05-10T17:19:23.098Z,3.50
2018-05-10T17:21:50.559Z,8.90
2018-05-10T17:24:18.032Z,4.10
2018-05-10T17:26:45.507Z,3.33
2018-05-10T17:29:12.968Z,5.80
2018-05-10T17:31:40.447Z,12.37
2018-05-10T17:34:07.932Z,11.67
2018-05-10T17:36:35.396Z,9.60
2018-05-10T17:39:02.867Z,8.33
2018-05-10T17:41:30.335Z,5.03
2018-05-10T17:43:57.805Z,5.33
2018-05-10T17:46:25.287Z,8.10
2018-05-10T17:48:52.745Z,7.40
2018-05-10T17:51:20.242Z,9.50
2018-05-10T17:53:47.707Z,12.57
2018-05-10T17:56:15.180Z,6.50
2018-05-10T17:58:42.643Z,6.50
2018-05-10T18:01:10.192Z,6.25
2018-05-10T18:03:38.179Z,4.80
2018-05-10T18:06:05.639Z,4.67
2018-05-10T18:08:33.132Z,11.63
2018-05-10T18:11:00.592Z,4.90
2018-05-10T18:13:28.066Z,5.07
2018-05-10T18:15:55.520Z,4.43
2018-05-10T18:18:23.002Z,4.43
2018-05-10T18:20:50.478Z,11.67
2018-05-10T18:23:17.974Z,14.17
2018-05-10T18:25:45.645Z,6.03
2018-05-10T18:28:13.117Z,26.63
2018-05-10T18:30:40.613Z,17.87
2018-05-10T18:33:08.143Z,12.83
2018-05-10T18:35:35.559Z,4.80
2018-05-10T18:38:03.027Z,7.60
2018-05-10T18:40:30.487Z,5.57
2018-05-10T18:42:58.076Z,9.93
2018-05-10T18:45:26.193Z,6.40
2018-05-10T18:47:53.663Z,6.40
2018-05-10T18:50:21.145Z,8.90
2018-05-10T18:52:48.612Z,5.07
2018-05-10T18:55:16.085Z,5.30
2018-05-10T18:57:43.558Z,4.70
2018-05-10T19:00:11.038Z,6.03
2018-05-10T19:02:38.516Z,5.13
2018-05-10T19:05:05.988Z,8.97
2018-05-10T19:07:33.472Z,12.73
2018-05-10T19:10:00.952Z,16.87
2018-05-10T19:12:28.424Z,4.87
2018-05-10T19:14:55.897Z,4.60
2018-05-10T19:17:23.360Z,4.70
2018-05-10T19:19:50.852Z,4.40
2018-05-10T19:22:18.323Z,5.27
2018-05-10T19:24:45.783Z,14.60
2018-05-10T19:27:13.256Z,15.53
2018-05-10T19:29:40.735Z,5.40
2018-05-10T19:32:08.252Z,18.30
2018-05-10T19:34:35.741Z,13.18
2018-05-10T19:37:03.230Z,14.93
2018-05-10T19:39:30.722Z,7.97
2018-05-10T19:41:58.191Z,17.50
2018-05-10T19:44:25.809Z,5.23
2018-05-10T19:46:53.559Z,31.10
2018-05-10T19:49:21.077Z,4.75
2018-05-10T19:51:48.556Z,5.72
2018-05-10T19:54:16.012Z,5.90
2018-05-10T19:56:43.582Z,5.10
2018-05-10T19:59:10.980Z,5.05
2018-05-10T20:01:38.443Z,5.50
2018-05-10T20:04:05.935Z,6.30
2018-05-10T20:06:33.401Z,9.33
2018-05-10T20:09:00.890Z,7.13
2018-05-10T20:11:28.344Z,5.77
2018-05-10T20:13:55.796Z,9.00
2018-05-10T20:16:23.270Z,8.00
2018-05-10T20:18:50.749Z,14.33
2018-05-10T20:21:18.232Z,12.57
2018-05-10T20:23:45.709Z,10.13
2018-05-10T20:26:13.164Z,9.60
2018-05-10T20:28:40.712Z,9.70
2018-05-10T20:31:08.132Z,9.40
2018-05-10T20:33:35.628Z,12.50
2018-05-10T20:36:03.113Z,11.87
2018-05-10T20:38:30.571Z,13.98
2018-05-10T20:40:58.052Z,14.23
2018-05-10T20:43:25.532Z,15.13
2018-05-10T20:45:53.236Z,16.23
2018-05-10T20:48:20.714Z,14.10
2018-05-10T20:50:48.191Z,14.40
2018-05-10T20:53:15.684Z,15.10
2018-05-10T20:55:43.221Z,13.73
2018-05-10T20:58:10.706Z,16.40
2018-05-10T21:00:38.168Z,26.57
2018-05-10T21:03:05.647Z,16.30
2018-05-10T21:05:33.127Z,16.60
2018-05-10T21:08:00.598Z,16.15
2018-05-10T21:10:28.081Z,14.07
2018-05-10T21:12:55.556Z,17.20
2018-05-10T21:15:23.027Z,13.87
2018-05-10T21:17:50.520Z,12.57
2018-05-10T21:20:17.987Z,15.90
2018-05-10T21:22:45.916Z,29.97
2018-05-10T21:25:13.380Z,15.77
2018-05-10T21:27:40.840Z,16.67
2018-05-10T21:30:08.348Z,17.47
2018-05-10T21:32:35.808Z,21.83
2018-05-10T21:35:03.283Z,21.47
2018-05-10T21:37:30.763Z,16.80
2018-05-10T21:39:58.234Z,18.80
2018-05-10T21:42:25.737Z,17.23
2018-05-10T21:44:53.217Z,18.42
2018-05-10T21:47:20.701Z,26.23
2018-05-10T21:49:59.933Z,15.90
2018-05-10T21:52:27.392Z,15.47
2018-05-10T21:54:54.947Z,14.90
2018-05-10T21:57:22.364Z,15.20
2018-05-10T21:59:49.827Z,13.97
2018-05-10T22:02:23.185Z,17.33
2018-05-10T22:04:50.671Z,13.50
2018-05-10T22:07:18.138Z,14.13
2018-05-10T22:09:45.626Z,12.90
2018-05-10T22:12:13.155Z,12.90
2018-05-10T22:14:40.613Z,24.53
2018-05-10T22:17:08.089Z,15.33
2018-05-10T22:19:35.571Z,12.48
2018-05-10T22:22:03.063Z,11.80
2018-05-10T22:24:30.558Z,19.47
2018-05-10T22:26:58.045Z,12.87
2018-05-10T22:29:25.513Z,17.20
2018-05-10T22:31:53.012Z,13.40
2018-05-10T22:34:20.484Z,15.20
2018-05-10T22:36:47.976Z,14.00
2018-05-10T22:39:15.463Z,19.83
2018-05-10T22:41:42.956Z,16.57
2018-05-10T22:44:10.419Z,17.47
2018-05-10T22:46:37.886Z,17.77
2018-05-10T22:49:05.382Z,19.08
2018-05-10T22:51:32.852Z,17.57
2018-05-10T22:54:00.346Z,15.43
2018-05-10T22:56:27.821Z,17.93
2018-05-10T22:58:55.327Z,16.47
2018-05-10T23:01:22.792Z,14.33
2018-05-10T23:03:50.261Z,13.67
2018-05-10T23:06:17.843Z,15.13
2018-05-10T23:08:45.243Z,13.80
2018-05-10T23:11:12.740Z,15.63
2018-05-10T23:13:40.214Z,14.77
2018-05-10T23:16:07.689Z,12.60
2018-05-10T23:18:35.178Z,14.00
2018-05-10T23:21:02.650Z,13.57
2018-05-10T23:23:30.148Z,14.23
2018-05-10T23:25:57.618Z,16.77
2018-05-10T23:28:25.090Z,14.93
2018-05-10T23:30:52.581Z,12.77
2018-05-10T23:33:20.056Z,13.82
2018-05-10T23:35:47.557Z,15.65
2018-05-10T23:38:15.135Z,13.17
2018-05-10T23:40:42.628Z,12.97
2018-05-10T23:43:10.095Z,12.27
2018-05-10T23:45:37.963Z,13.13
2018-05-10T23:48:05.452Z,13.90
2018-05-10T23:50:32.968Z,12.73
2018-05-10T23:53:00.482Z,13.33
2018-05-10T23:55:29.624Z,12.17
2018-05-10T23:57:57.289Z,11.60
